Tabiona, Utah
Current Conditions -  °F | °C
As of 5:15 PM on Tuesday 25 Nov 2014 (Local Time) from K36U Reporting Station
Light Snow Light Snow  
Wind Chill: 34°   Ceiling: 2200
Heat Index: 34°   Visibility: 10mi
Dew Point: 30°   Wind: 0mph
Humidity: 87%   Direction: NA
Pressure: 30.32"   Gusts: NA
Location:  40.35°N, 110.71°W
Report Text: K36U 260015Z AUTO 00000KT 10SM -SN OVC022 01/M01 A3032 RMK AO2
Loading
Personal Weather Stations






























Interactive Weather Map New forecast layout! Learn more

10-Day Weather Forecast

Advertisements
Track Severe Weather on mobile